Spirit II — 9V3628 — position and weather

sailwx.info

Track history (hours):
 
Tides and Currents Weather Stations Pressure Air Temp Water Temp Dewpoint Dewpoint Depression Visibility Wind Speed Wind Dir Waves Ship Positions

Spirit II

Last reported at 2017-Sep-18 19:45 UTC. Time now 2017-Sep-19 20:46 UTC.
Position N 37°50' E 008°35'.

Length 252 m; draft 12.6 m.

Type: Tanker. MMSI: 566414000.

Date/timePositionNaut miles runAvg speedWind from/ knotsBaromVisibWave heightAir tempDewpointWater temp
2017-Sep-18 19:45N 37°50' E 008°35'313.0
2017-Sep-18 19:30N 37°50' E 008°39'813.1
2017-Sep-18 18:52N 37°51' E 008°49'16012.5
2017-Sep-18 06:04N 37°02' E 012°02'412.3
2017-Sep-18 05:43N 36°60' E 012°06'412.3
2017-Sep-18 05:26N 36°58' E 012°10'612.4
2017-Sep-18 04:56N 36°55' E 012°17'612.6
2017-Sep-18 04:26N 36°53' E 012°24'612.7
2017-Sep-18 04:00N 36°50' E 012°30'612.5
2017-Sep-18 03:31N 36°46' E 012°36'712.9
2017-Sep-18 02:58N 36°41' E 012°41'713.0
2017-Sep-18 02:28N 36°35' E 012°46'613.3
2017-Sep-18 02:00N 36°30' E 012°50'713.6
2017-Sep-18 01:30N 36°25' E 012°56'713.6
2017-Sep-18 01:00N 36°20' E 013°01'713.4
2017-Sep-18 00:28N 36°14' E 013°06'713.5
2017-Sep-17 23:57N 36°08' E 013°11'713.1
2017-Sep-17 23:25N 36°02' E 013°15'612.6
2017-Sep-17 22:58N 35°56' E 013°16'612.6
2017-Sep-17 22:30N 35°51' E 013°15'3112.5
2017-Sep-17 20:00N 35°20' E 013°05'612.6
2017-Sep-17 19:30N 35°14' E 013°03'612.6
2017-Sep-17 19:00N 35°08' E 013°01'612.8
2017-Sep-17 18:30N 35°02' E 012°60'612.5
2017-Sep-17 17:59N 34°56' E 012°58'612.7
2017-Sep-17 17:30N 34°50' E 012°56'1612.5
2017-Sep-17 16:15N 34°34' E 012°51'42 8.2
2017-Sep-17 11:10N 33°54' E 012°38'1 0.0
2017-Sep-16 15:25N 33°54' E 012°39'0 0.2
2017-Sep-16 14:52N 33°54' E 012°39'0 0.2
2017-Sep-16 14:25N 33°54' E 012°39'0 0.1
2017-Sep-16 12:48N 33°54' E 012°39'0 0.3
2017-Sep-16 12:30N 33°54' E 012°39'1 1.8
2017-Sep-16 12:00N 33°53' E 012°39'2 3.4
2017-Sep-16 11:30N 33°53' E 012°42'1 2.0
2017-Sep-16 11:00N 33°54' E 012°43'2 3.1
2017-Sep-16 10:30N 33°55' E 012°43'1 1.4
2017-Sep-16 09:57N 33°56' E 012°43'0 0.9
2017-Sep-16 09:30N 33°56' E 012°43'0 0.4
2017-Sep-16 09:00N 33°56' E 012°43'1 1.6
2017-Sep-16 08:30N 33°55' E 012°43'2 3.7
2017-Sep-16 08:00N 33°54' E 012°44'2 3.1
2017-Sep-16 07:30N 33°53' E 012°45'2 4.1
2017-Sep-16 07:00N 33°52' E 012°48'6 4.7
2017-Sep-16 05:41N 33°59' E 012°50'2 4.7
2017-Sep-16 05:18N 34°00' E 012°50'1 4.4
2017-Sep-16 04:59N 34°02' E 012°50'8 9.0
2017-Sep-16 04:06N 34°09' E 012°52'112.7
2017-Sep-16 04:00N 34°11' E 012°52'612.6
2017-Sep-16 03:30N 34°17' E 012°54'812.5
2017-Sep-16 02:50N 34°25' E 012°56'412.3
2017-Sep-16 02:30N 34°29' E 012°56'1212.3
2017-Sep-16 01:31N 34°41' E 012°59'012.3
2017-Sep-16 01:30N 34°41' E 012°59'612.3
2017-Sep-16 00:59N 34°47' E 013°01'612.4
2017-Sep-16 00:30N 34°53' E 013°02'1412.4
2017-Sep-15 23:22N 35°07' E 013°05'612.5
2017-Sep-15 22:52N 35°13' E 013°06'912.5
2017-Sep-15 22:06N 35°23' E 013°08'212.3
2017-Sep-15 21:58N 35°24' E 013°09'612.3
2017-Sep-15 21:29N 35°30' E 013°10'612.3
2017-Sep-15 21:00N 35°36' E 013°11'612.4
2017-Sep-15 20:29N 35°42' E 013°13'612.4
2017-Sep-15 20:00N 35°48' E 013°14'612.8
2017-Sep-15 19:30N 35°54' E 013°16'713.3
2017-Sep-15 19:00N 36°01' E 013°18'612.4
2017-Sep-15 18:30N 36°07' E 013°20'812.5
2017-Sep-15 17:50N 36°15' E 013°23'412.7
2017-Sep-15 17:30N 36°19' E 013°24'612.7
2017-Sep-15 17:00N 36°25' E 013°25'611.4
2017-Sep-15 16:29N 36°30' E 013°21'712.8
2017-Sep-15 15:56N 36°33' E 013°12'512.6
2017-Sep-15 15:30N 36°35' E 013°06'612.6
2017-Sep-15 15:00N 36°37' E 012°59'712.6
2017-Sep-15 14:26N 36°40' E 012°50'912.8
2017-Sep-15 13:44N 36°44' E 012°40'313.0
2017-Sep-15 13:30N 36°44' E 012°37'712.6
2017-Sep-15 12:59N 36°48' E 012°29'1112.6
2017-Sep-15 12:07N 36°53' E 012°17'212.9
2017-Sep-15 12:00N 36°53' E 012°16'612.8
2017-Sep-15 11:30N 36°57' E 012°09'13913.1
2017-Sep-15 00:56N 37°41' E 009°23'613.5
2017-Sep-15 00:29N 37°44' E 009°17'2413.2
2017-Sep-14 22:41N 37°53' E 008°49'20313.1
2017-Sep-14 07:16N 37°38' E 004°33'613.0
2017-Sep-14 06:48N 37°37' E 004°26'2412.8
2017-Sep-14 04:55N 37°36' E 003°55'9412.4
2017-Sep-13 21:22N 37°33' E 001°57'513.0
2017-Sep-13 20:59N 37°33' E 001°51'1012.9
2017-Sep-13 20:11N 37°33' E 001°38'312.9
2017-Sep-13 19:59N 37°33' E 001°35'913.1
2017-Sep-13 19:16N 37°33' E 001°23'613.0
2017-Sep-13 18:49N 37°33' E 001°16'412.7
2017-Sep-13 18:30N 37°33' E 001°10'712.5
2017-Sep-13 17:56N 37°32' E 001°02'512.2
2017-Sep-13 17:30N 37°32' E 000°55'612.1
2017-Sep-13 17:00N 37°32' E 000°47'612.2
2017-Sep-13 16:29N 37°32' E 000°39'812.3
2017-Sep-13 15:50N 37°32' E 000°29'412.4
2017-Sep-13 15:29N 37°31' E 000°24'612.7
2017-Sep-13 15:00N 37°31' E 000°16'612.7
2017-Sep-13 14:30N 37°31' E 000°08'812.5
2017-Sep-13 13:52N 37°31' W 000°02'1012.6
2017-Sep-13 13:05N 37°30' W 000°14'912.6
2017-Sep-13 12:22N 37°30' W 000°26'512.6
2017-Sep-13 11:59N 37°30' W 000°32'712.6
2017-Sep-13 11:28N 37°30' W 000°40'612.3
2017-Sep-13 11:00N 37°29' W 000°47'712.1
2017-Sep-13 10:27N 37°31' W 000°55'4 0.1
2017-Sep-12 03:15N 37°33' W 000°60'1 4.0
2017-Sep-12 03:00N 37°32' W 001°00'1 1.9
2017-Sep-12 02:29N 37°33' W 001°00'1 1.4
2017-Sep-12 02:00N 37°33' W 001°01'  
Track history (hours):
 
Tides and Currents Weather Stations Pressure Air Temp Water Temp Dewpoint Dewpoint Depression Visibility Wind Speed Wind Dir Waves Ship Positions

Spirit II

Last reported at 2017-Sep-18 19:45 UTC. Time now 2017-Sep-19 20:46 UTC.
Position N 37°50' E 008°35'.

Length 252 m; draft 12.6 m.

Type: Tanker. MMSI: 566414000.

Date/timePositionNaut miles runAvg speedWind from/ knotsBaromVisibWave heightAir tempDewpointWater temp
2017-Sep-18 19:45N 37°50' E 008°35'313.0
2017-Sep-18 19:30N 37°50' E 008°39'813.1
2017-Sep-18 18:52N 37°51' E 008°49'16012.5
2017-Sep-18 06:04N 37°02' E 012°02'412.3
2017-Sep-18 05:43N 36°60' E 012°06'412.3
2017-Sep-18 05:26N 36°58' E 012°10'612.4
2017-Sep-18 04:56N 36°55' E 012°17'612.6
2017-Sep-18 04:26N 36°53' E 012°24'612.7
2017-Sep-18 04:00N 36°50' E 012°30'612.5
2017-Sep-18 03:31N 36°46' E 012°36'712.9
2017-Sep-18 02:58N 36°41' E 012°41'713.0
2017-Sep-18 02:28N 36°35' E 012°46'613.3
2017-Sep-18 02:00N 36°30' E 012°50'713.6
2017-Sep-18 01:30N 36°25' E 012°56'713.6
2017-Sep-18 01:00N 36°20' E 013°01'713.4
2017-Sep-18 00:28N 36°14' E 013°06'713.5
2017-Sep-17 23:57N 36°08' E 013°11'713.1
2017-Sep-17 23:25N 36°02' E 013°15'612.6
2017-Sep-17 22:58N 35°56' E 013°16'612.6
2017-Sep-17 22:30N 35°51' E 013°15'3112.5
2017-Sep-17 20:00N 35°20' E 013°05'612.6
2017-Sep-17 19:30N 35°14' E 013°03'612.6
2017-Sep-17 19:00N 35°08' E 013°01'612.8
2017-Sep-17 18:30N 35°02' E 012°60'612.5
2017-Sep-17 17:59N 34°56' E 012°58'612.7
2017-Sep-17 17:30N 34°50' E 012°56'1612.5
2017-Sep-17 16:15N 34°34' E 012°51'42 8.2
2017-Sep-17 11:10N 33°54' E 012°38'1 0.0
2017-Sep-16 15:25N 33°54' E 012°39'0 0.2
2017-Sep-16 14:52N 33°54' E 012°39'0 0.2
2017-Sep-16 14:25N 33°54' E 012°39'0 0.1
2017-Sep-16 12:48N 33°54' E 012°39'0 0.3
2017-Sep-16 12:30N 33°54' E 012°39'1 1.8
2017-Sep-16 12:00N 33°53' E 012°39'2 3.4
2017-Sep-16 11:30N 33°53' E 012°42'1 2.0
2017-Sep-16 11:00N 33°54' E 012°43'2 3.1
2017-Sep-16 10:30N 33°55' E 012°43'1 1.4
2017-Sep-16 09:57N 33°56' E 012°43'0 0.9
2017-Sep-16 09:30N 33°56' E 012°43'0 0.4
2017-Sep-16 09:00N 33°56' E 012°43'1 1.6
2017-Sep-16 08:30N 33°55' E 012°43'2 3.7
2017-Sep-16 08:00N 33°54' E 012°44'2 3.1
2017-Sep-16 07:30N 33°53' E 012°45'2 4.1
2017-Sep-16 07:00N 33°52' E 012°48'6 4.7
2017-Sep-16 05:41N 33°59' E 012°50'2 4.7
2017-Sep-16 05:18N 34°00' E 012°50'1 4.4
2017-Sep-16 04:59N 34°02' E 012°50'8 9.0
2017-Sep-16 04:06N 34°09' E 012°52'112.7
2017-Sep-16 04:00N 34°11' E 012°52'612.6
2017-Sep-16 03:30N 34°17' E 012°54'812.5
2017-Sep-16 02:50N 34°25' E 012°56'412.3
2017-Sep-16 02:30N 34°29' E 012°56'1212.3
2017-Sep-16 01:31N 34°41' E 012°59'012.3
2017-Sep-16 01:30N 34°41' E 012°59'612.3
2017-Sep-16 00:59N 34°47' E 013°01'612.4
2017-Sep-16 00:30N 34°53' E 013°02'1412.4
2017-Sep-15 23:22N 35°07' E 013°05'612.5
2017-Sep-15 22:52N 35°13' E 013°06'912.5
2017-Sep-15 22:06N 35°23' E 013°08'212.3
2017-Sep-15 21:58N 35°24' E 013°09'612.3
2017-Sep-15 21:29N 35°30' E 013°10'612.3
2017-Sep-15 21:00N 35°36' E 013°11'612.4
2017-Sep-15 20:29N 35°42' E 013°13'612.4
2017-Sep-15 20:00N 35°48' E 013°14'612.8
2017-Sep-15 19:30N 35°54' E 013°16'713.3
2017-Sep-15 19:00N 36°01' E 013°18'612.4
2017-Sep-15 18:30N 36°07' E 013°20'812.5
2017-Sep-15 17:50N 36°15' E 013°23'412.7
2017-Sep-15 17:30N 36°19' E 013°24'612.7
2017-Sep-15 17:00N 36°25' E 013°25'611.4
2017-Sep-15 16:29N 36°30' E 013°21'712.8
2017-Sep-15 15:56N 36°33' E 013°12'512.6
2017-Sep-15 15:30N 36°35' E 013°06'612.6
2017-Sep-15 15:00N 36°37' E 012°59'712.6
2017-Sep-15 14:26N 36°40' E 012°50'912.8
2017-Sep-15 13:44N 36°44' E 012°40'313.0
2017-Sep-15 13:30N 36°44' E 012°37'712.6
2017-Sep-15 12:59N 36°48' E 012°29'1112.6
2017-Sep-15 12:07N 36°53' E 012°17'212.9
2017-Sep-15 12:00N 36°53' E 012°16'612.8
2017-Sep-15 11:30N 36°57' E 012°09'13913.1
2017-Sep-15 00:56N 37°41' E 009°23'613.5
2017-Sep-15 00:29N 37°44' E 009°17'2413.2
2017-Sep-14 22:41N 37°53' E 008°49'20313.1
2017-Sep-14 07:16N 37°38' E 004°33'613.0
2017-Sep-14 06:48N 37°37' E 004°26'2412.8
2017-Sep-14 04:55N 37°36' E 003°55'9412.4
2017-Sep-13 21:22N 37°33' E 001°57'513.0
2017-Sep-13 20:59N 37°33' E 001°51'1012.9
2017-Sep-13 20:11N 37°33' E 001°38'312.9
2017-Sep-13 19:59N 37°33' E 001°35'913.1
2017-Sep-13 19:16N 37°33' E 001°23'613.0
2017-Sep-13 18:49N 37°33' E 001°16'412.7
2017-Sep-13 18:30N 37°33' E 001°10'712.5
2017-Sep-13 17:56N 37°32' E 001°02'512.2
2017-Sep-13 17:30N 37°32' E 000°55'612.1
2017-Sep-13 17:00N 37°32' E 000°47'612.2
2017-Sep-13 16:29N 37°32' E 000°39'812.3
2017-Sep-13 15:50N 37°32' E 000°29'412.4
2017-Sep-13 15:29N 37°31' E 000°24'612.7
2017-Sep-13 15:00N 37°31' E 000°16'612.7
2017-Sep-13 14:30N 37°31' E 000°08'812.5
2017-Sep-13 13:52N 37°31' W 000°02'1012.6
2017-Sep-13 13:05N 37°30' W 000°14'912.6
2017-Sep-13 12:22N 37°30' W 000°26'512.6
2017-Sep-13 11:59N 37°30' W 000°32'712.6
2017-Sep-13 11:28N 37°30' W 000°40'612.3
2017-Sep-13 11:00N 37°29' W 000°47'712.1
2017-Sep-13 10:27N 37°31' W 000°55'4 0.1
2017-Sep-12 03:15N 37°33' W 000°60'1 4.0
2017-Sep-12 03:00N 37°32' W 001°00'1 1.9
2017-Sep-12 02:29N 37°33' W 001°00'1 1.4
2017-Sep-12 02:00N 37°33' W 001°01'  

Dump ship's entire track history